Time;durP1;ratioP1;P1;durP2;ratioP2;P2;SDS_P1;SDS_P2;PMS_P1;PMS_P2;Temp;Humidity;BMP_temperature;BMP_pressure;BME280_temperature;BME280_humidity;BME280_pressure;Samples;Min_cycle;Max_cycle;Signal;HPM_P1;HPM_P2
2021/08/24 00:00:50;;;;;;;2.45;0.95;;;15.80;99.90;;;;;;4995804;28;20041;-71
2021/08/24 00:03:16;;;;;;;3.70;0.90;;;15.80;99.90;;;;;;4997419;28;20053;-70
2021/08/24 00:05:42;;;;;;;8.77;0.90;;;15.70;99.90;;;;;;4997722;28;20030;-70
2021/08/24 00:08:08;;;;;;;3.85;1.08;;;15.70;99.90;;;;;;4998557;28;20026;-70
2021/08/24 00:10:38;;;;;;;3.40;0.90;;;15.70;99.90;;;;;;4997742;28;20486;-70
2021/08/24 00:13:05;;;;;;;2.13;0.95;;;15.70;99.90;;;;;;4999836;28;20109;-70
2021/08/24 00:15:30;;;;;;;4.65;0.98;;;15.70;99.90;;;;;;5001422;28;20026;-70
2021/08/24 00:17:58;;;;;;;1.67;0.95;;;15.70;99.90;;;;;;5003250;28;20044;-70
2021/08/24 00:20:26;;;;;;;2.53;0.73;;;15.70;99.90;;;;;;5000608;28;20058;-70
2021/08/24 00:22:51;;;;;;;2.90;1.00;;;15.70;99.90;;;;;;5002939;28;20455;-70
2021/08/24 00:25:17;;;;;;;6.05;1.17;;;15.70;99.90;;;;;;4983641;28;20050;-70
2021/08/24 00:27:43;;;;;;;2.58;0.93;;;15.60;99.90;;;;;;5001669;28;20038;-70
2021/08/24 00:30:09;;;;;;;2.58;0.95;;;15.50;99.90;;;;;;5006001;28;20515;-70
2021/08/24 00:32:35;;;;;;;3.97;0.95;;;15.60;99.90;;;;;;4983565;28;20030;-70
2021/08/24 00:35:00;;;;;;;2.00;0.80;;;15.50;99.90;;;;;;4985163;28;20026;-70
2021/08/24 00:37:26;;;;;;;4.20;1.20;;;15.50;99.90;;;;;;4999743;28;20073;-70
2021/08/24 00:39:52;;;;;;;2.20;0.77;;;15.50;99.90;;;;;;5010774;28;20026;-70
2021/08/24 00:42:18;;;;;;;2.95;1.20;;;15.50;99.90;;;;;;4983920;28;20062;-69
2021/08/24 00:44:46;;;;;;;5.38;0.90;;;15.50;99.90;;;;;;5003578;28;20360;-69
2021/08/24 00:47:18;;;;;;;2.00;0.90;;;15.40;99.90;;;;;;4997901;28;20022;-69
2021/08/24 00:49:44;;;;;;;3.05;1.10;;;15.40;99.90;;;;;;5003321;28;20093;-69
2021/08/24 00:52:16;;;;;;;3.38;1.20;;;15.40;99.90;;;;;;4986210;28;20026;-70
2021/08/24 00:54:43;;;;;;;2.38;1.05;;;15.40;99.90;;;;;;5003748;28;20034;-69
2021/08/24 00:57:15;;;;;;;2.80;0.95;;;15.30;99.90;;;;;;4984953;28;20034;-69
2021/08/24 00:59:40;;;;;;;3.17;0.90;;;15.30;99.90;;;;;;5003338;28;20390;-69
2021/08/24 01:02:20;;;;;;;2.70;1.10;;;15.30;99.90;;;;;;5000996;28;20026;-69
2021/08/24 01:04:47;;;;;;;2.38;1.02;;;15.30;99.90;;;;;;5002772;28;20157;-69
2021/08/24 01:07:22;;;;;;;3.20;1.20;;;15.20;99.90;;;;;;5002708;28;20088;-69
2021/08/24 01:10:28;;;;;;;3.47;1.17;;;15.20;99.90;;;;;;5003482;28;20029;-69
2021/08/24 01:13:03;;;;;;;3.65;1.27;;;15.10;99.90;;;;;;4955549;28;20066;-69
2021/08/24 01:15:43;;;;;;;4.03;1.77;;;15.10;99.90;;;;;;4999432;28;20034;-69
2021/08/24 01:18:14;;;;;;;7.28;1.40;;;15.10;99.90;;;;;;5002941;28;20466;-69
2021/08/24 01:20:48;;;;;;;6.90;1.38;;;15.00;99.90;;;;;;4983655;28;20048;-69
2021/08/24 01:23:39;;;;;;;2.53;1.25;;;15.00;99.90;;;;;;5001954;28;20066;-69
2021/08/24 01:26:21;;;;;;;4.07;1.30;;;15.00;99.90;;;;;;4990730;28;20042;-69
2021/08/24 01:29:01;;;;;;;9.73;1.10;;;15.00;99.90;;;;;;4999686;28;20033;-69
2021/08/24 01:31:30;;;;;;;3.70;1.40;;;14.90;99.90;;;;;;5009933;28;20038;-69
2021/08/24 01:34:37;;;;;;;4.32;1.48;;;14.90;99.90;;;;;;4999253;28;20573;-69
2021/08/24 01:37:09;;;;;;;3.72;1.38;;;14.90;99.90;;;;;;4982489;28;20084;-69
2021/08/24 01:39:39;;;;;;;2.58;1.25;;;14.80;99.90;;;;;;5005596;28;20111;-69
2021/08/24 01:42:20;;;;;;;5.28;1.23;;;14.80;99.90;;;;;;5000352;28;20406;-69
2021/08/24 01:44:52;;;;;;;2.78;1.27;;;14.80;99.90;;;;;;5001728;28;20421;-69
2021/08/24 01:47:32;;;;;;;3.20;1.10;;;14.80;99.90;;;;;;4998852;28;20038;-69
2021/08/24 01:50:14;;;;;;;2.35;1.00;;;14.80;99.90;;;;;;4999116;28;20046;-70
2021/08/24 01:52:46;;;;;;;3.33;1.50;;;14.80;99.90;;;;;;5002225;28;20031;-69
2021/08/24 01:55:22;;;;;;;3.45;1.48;;;14.80;99.90;;;;;;4999426;28;20115;-69
2021/08/24 01:57:58;;;;;;;4.70;2.13;;;14.70;99.90;;;;;;5001989;28;20026;-68
2021/08/24 02:00:24;;;;;;;3.95;1.23;;;14.70;99.90;;;;;;4999470;28;20042;-67
2021/08/24 02:02:56;;;;;;;2.80;1.23;;;14.70;99.90;;;;;;5006098;28;20117;-67
2021/08/24 02:05:30;;;;;;;4.10;1.45;;;14.70;99.90;;;;;;4995228;28;20038;-66
2021/08/24 02:08:03;;;;;;;3.00;1.35;;;14.70;99.90;;;;;;4983397;28;20038;-68
2021/08/24 02:10:30;;;;;;;2.20;1.13;;;14.70;99.90;;;;;;5002902;28;20053;-67
2021/08/24 02:12:59;;;;;;;2.42;1.20;;;14.70;99.90;;;;;;4981367;28;20398;-66
2021/08/24 02:15:32;;;;;;;3.60;1.55;;;14.70;99.90;;;;;;4984033;28;20034;-66
2021/08/24 02:17:59;;;;;;;6.43;1.27;;;14.70;99.90;;;;;;4999133;28;20041;-67
2021/08/24 02:20:34;;;;;;;2.20;1.05;;;14.60;99.90;;;;;;5001754;28;20449;-69
2021/08/24 02:23:04;;;;;;;3.75;1.40;;;14.60;99.90;;;;;;5001653;28;20041;-70
2021/08/24 02:25:33;;;;;;;4.03;1.48;;;14.50;99.90;;;;;;4999750;28;20166;-69
2021/08/24 02:28:06;;;;;;;4.53;1.40;;;14.50;99.90;;;;;;4999707;28;20053;-70
2021/08/24 02:30:38;;;;;;;3.08;1.27;;;14.50;99.90;;;;;;5007227;28;20107;-69
2021/08/24 02:33:05;;;;;;;3.30;1.40;;;14.50;99.90;;;;;;4996925;28;20042;-70
2021/08/24 02:35:43;;;;;;;4.18;1.75;;;14.50;99.90;;;;;;4998009;28;20375;-69
2021/08/24 02:38:21;;;;;;;5.72;1.85;;;14.40;99.90;;;;;;4997123;28;20064;-69
2021/08/24 02:41:18;;;;;;;4.93;1.38;;;14.40;99.90;;;;;;5004758;28;20034;-69
2021/08/24 02:44:01;;;;;;;2.35;1.13;;;14.40;99.90;;;;;;4980023;28;20125;-69
2021/08/24 02:46:31;;;;;;;3.95;1.30;;;14.40;99.90;;;;;;4997745;28;20108;-70
2021/08/24 02:49:00;;;;;;;3.60;1.40;;;14.40;99.90;;;;;;5000002;28;20030;-69
2021/08/24 02:51:27;;;;;;;4.25;1.50;;;14.40;99.90;;;;;;4998011;28;20434;-70
2021/08/24 02:54:04;;;;;;;6.00;1.92;;;14.30;99.90;;;;;;5000389;28;20034;-69
2021/08/24 02:56:30;;;;;;;5.85;2.00;;;14.30;99.90;;;;;;4981011;28;20042;-68
2021/08/24 02:58:56;;;;;;;9.93;2.30;;;14.30;99.90;;;;;;4999634;28;20087;-69
2021/08/24 03:01:21;;;;;;;4.93;1.80;;;14.30;99.90;;;;;;4998257;28;20042;-69
2021/08/24 03:03:47;;;;;;;5.40;2.33;;;14.30;99.90;;;;;;4978877;28;20058;-69
2021/08/24 03:06:12;;;;;;;4.20;1.60;;;14.30;99.90;;;;;;4982922;28;20120;-69
2021/08/24 03:08:39;;;;;;;8.32;2.45;;;14.30;99.90;;;;;;4997557;28;20121;-69
2021/08/24 03:11:07;;;;;;;4.60;1.90;;;14.30;99.90;;;;;;4999699;28;20042;-69
2021/08/24 03:14:00;;;;;;;4.28;2.13;;;14.30;99.90;;;;;;4995985;28;20038;-69
2021/08/24 03:16:39;;;;;;;3.53;1.95;;;14.30;99.90;;;;;;4996826;28;20029;-70
2021/08/24 03:19:09;;;;;;;5.70;2.03;;;14.30;99.90;;;;;;4999604;28;20034;-69
2021/08/24 03:21:37;;;;;;;4.32;2.25;;;14.30;99.90;;;;;;4980245;28;20033;-69
2021/08/24 03:24:04;;;;;;;5.82;2.40;;;14.30;99.90;;;;;;4998920;28;20445;-69
2021/08/24 03:26:34;;;;;;;9.77;2.03;;;14.20;99.90;;;;;;4998152;28;20045;-69
2021/08/24 03:28:59;;;;;;;7.35;2.28;;;14.30;99.90;;;;;;4998964;28;20058;-69
2021/08/24 03:31:28;;;;;;;3.45;2.10;;;14.20;99.90;;;;;;5001051;28;20081;-69
2021/08/24 03:33:54;;;;;;;4.65;2.28;;;14.30;99.90;;;;;;4999140;28;20056;-69
2021/08/24 03:36:20;;;;;;;7.57;2.38;;;14.30;99.90;;;;;;4997282;28;20037;-69
2021/08/24 03:38:45;;;;;;;9.23;1.83;;;14.30;99.90;;;;;;4996113;28;20034;-69
2021/08/24 03:41:12;;;;;;;6.80;1.83;;;14.30;99.90;;;;;;5011012;28;20041;-69
2021/08/24 03:43:38;;;;;;;7.57;2.35;;;14.30;99.90;;;;;;4997006;28;20116;-69
2021/08/24 03:46:04;;;;;;;7.10;2.55;;;14.30;99.90;;;;;;4999394;28;20126;-69
2021/08/24 03:48:29;;;;;;;10.10;2.20;;;14.30;99.90;;;;;;4998325;28;20124;-69
2021/08/24 03:50:55;;;;;;;5.53;1.98;;;14.30;99.90;;;;;;4996003;28;20105;-69
2021/08/24 03:53:21;;;;;;;6.53;2.50;;;14.30;99.90;;;;;;5001432;28;20038;-69
2021/08/24 03:55:46;;;;;;;6.20;2.33;;;14.30;99.90;;;;;;5000649;28;20073;-69
2021/08/24 03:58:13;;;;;;;9.57;2.22;;;14.30;99.90;;;;;;5000210;28;20109;-69
2021/08/24 04:00:42;;;;;;;7.47;2.28;;;14.30;99.90;;;;;;5000573;28;20813;-70
2021/08/24 04:03:08;;;;;;;9.50;2.63;;;14.30;99.90;;;;;;5000013;28;20037;-69
2021/08/24 04:05:33;;;;;;;6.43;2.53;;;14.30;99.90;;;;;;4999885;28;20035;-69
2021/08/24 04:07:59;;;;;;;9.15;2.15;;;14.30;99.90;;;;;;5001726;28;20042;-69
2021/08/24 04:10:25;;;;;;;13.98;2.67;;;14.40;99.90;;;;;;4998275;28;20117;-69
2021/08/24 04:12:51;;;;;;;6.90;2.28;;;14.40;99.90;;;;;;4999666;28;20125;-69
2021/08/24 04:15:16;;;;;;;8.30;2.38;;;14.40;99.90;;;;;;5004423;28;20449;-69
2021/08/24 04:17:42;;;;;;;5.82;1.92;;;14.40;99.90;;;;;;4977995;28;20030;-70
2021/08/24 04:20:11;;;;;;;5.93;1.98;;;14.40;99.90;;;;;;4996615;28;20544;-69
2021/08/24 04:22:39;;;;;;;5.60;2.60;;;14.40;99.90;;;;;;4996604;28;20038;-69
2021/08/24 04:25:06;;;;;;;6.15;2.50;;;14.40;99.90;;;;;;4996266;28;20027;-69
2021/08/24 04:27:31;;;;;;;5.97;1.90;;;14.40;99.90;;;;;;4996408;28;20599;-69
2021/08/24 04:29:57;;;;;;;9.88;2.28;;;14.40;99.90;;;;;;4996169;28;20113;-69
2021/08/24 04:32:26;;;;;;;7.28;2.00;;;14.40;99.90;;;;;;4996477;28;20035;-69
2021/08/24 04:34:53;;;;;;;5.45;1.95;;;14.40;99.90;;;;;;4995924;28;20081;-69
2021/08/24 04:37:19;;;;;;;7.93;3.28;;;14.40;99.90;;;;;;4983401;28;20034;-69
2021/08/24 04:39:44;;;;;;;11.95;1.95;;;14.40;99.90;;;;;;4998029;28;20045;-70
2021/08/24 04:42:10;;;;;;;6.00;2.08;;;14.40;99.90;;;;;;4994783;28;20034;-69
2021/08/24 04:44:35;;;;;;;5.43;2.72;;;14.40;99.90;;;;;;4996302;28;20038;-69
2021/08/24 04:47:01;;;;;;;27.85;3.25;;;14.40;99.90;;;;;;4996381;28;20034;-70
2021/08/24 04:49:27;;;;;;;8.82;2.25;;;14.40;99.90;;;;;;5000325;28;20117;-69
2021/08/24 04:51:53;;;;;;;10.18;2.38;;;14.40;99.90;;;;;;5000042;28;20441;-68
2021/08/24 04:54:18;;;;;;;8.10;2.45;;;14.40;99.90;;;;;;4998663;28;20519;-66
2021/08/24 04:56:44;;;;;;;6.05;1.55;;;14.40;99.90;;;;;;4996508;28;20458;-67
2021/08/24 04:59:10;;;;;;;5.60;2.25;;;14.40;99.90;;;;;;4996435;28;20037;-66
2021/08/24 05:01:36;;;;;;;5.60;2.30;;;14.40;99.90;;;;;;5000975;28;20030;-66
2021/08/24 05:04:01;;;;;;;4.40;2.10;;;14.40;99.90;;;;;;5003031;28;20394;-67
2021/08/24 05:06:27;;;;;;;7.70;2.30;;;14.50;99.90;;;;;;4986843;28;20034;-67
2021/08/24 05:08:53;;;;;;;11.43;2.20;;;14.40;99.90;;;;;;5004923;28;20391;-66
2021/08/24 05:11:18;;;;;;;5.32;1.85;;;14.50;99.90;;;;;;4991526;28;20030;-66
2021/08/24 05:13:44;;;;;;;5.53;2.35;;;14.50;99.90;;;;;;5007622;28;20058;-67
2021/08/24 05:16:10;;;;;;;4.88;1.88;;;14.60;99.90;;;;;;5010405;28;20045;-66
2021/08/24 05:18:37;;;;;;;8.80;2.28;;;14.60;99.90;;;;;;4987784;28;20072;-66
2021/08/24 05:21:05;;;;;;;7.22;2.15;;;14.60;99.90;;;;;;4992537;28;20041;-67
2021/08/24 05:23:32;;;;;;;5.72;2.10;;;14.70;99.90;;;;;;5002989;28;20077;-67
2021/08/24 05:25:58;;;;;;;9.70;2.50;;;14.60;99.90;;;;;;5005853;28;20798;-66
2021/08/24 05:28:23;;;;;;;8.82;2.42;;;14.70;99.90;;;;;;5010234;28;20052;-66
2021/08/24 05:30:49;;;;;;;6.82;2.40;;;14.80;99.90;;;;;;5006744;28;20065;-67
2021/08/24 05:33:15;;;;;;;4.93;2.40;;;14.80;99.90;;;;;;5006561;28;20034;-67
2021/08/24 05:35:40;;;;;;;11.23;2.42;;;14.80;99.90;;;;;;4990400;28;20041;-67
2021/08/24 05:38:06;;;;;;;8.18;2.90;;;14.80;99.90;;;;;;5003915;28;20048;-66
2021/08/24 05:40:31;;;;;;;7.53;2.53;;;14.80;99.90;;;;;;5006893;28;20037;-70
2021/08/24 05:42:57;;;;;;;12.50;3.17;;;14.80;99.90;;;;;;5005848;28;20022;-69
2021/08/24 05:45:23;;;;;;;6.65;2.40;;;14.90;99.90;;;;;;5004587;28;20040;-69
2021/08/24 05:47:48;;;;;;;9.73;2.25;;;15.00;99.90;;;;;;5005457;28;20449;-69
2021/08/24 05:50:14;;;;;;;14.25;2.20;;;15.00;99.90;;;;;;5005868;28;20033;-69
2021/08/24 05:52:40;;;;;;;8.90;2.55;;;15.00;99.90;;;;;;5005885;28;20379;-69
2021/08/24 05:55:06;;;;;;;7.70;2.00;;;15.20;99.90;;;;;;5004615;28;20096;-69
2021/08/24 05:57:31;;;;;;;5.40;2.10;;;15.20;99.90;;;;;;5003779;28;20498;-70
2021/08/24 05:59:57;;;;;;;6.90;1.92;;;15.40;99.90;;;;;;5001366;28;20034;-69
2021/08/24 06:02:22;;;;;;;15.27;3.03;;;15.50;99.90;;;;;;5005137;28;20053;-69
2021/08/24 06:04:48;;;;;;;5.20;1.75;;;15.60;99.90;;;;;;4983329;28;20119;-69
2021/08/24 06:07:14;;;;;;;4.80;2.35;;;15.70;99.90;;;;;;5005542;28;20040;-69
2021/08/24 06:09:40;;;;;;;6.18;2.10;;;15.80;99.90;;;;;;5001771;28;20038;-69
2021/08/24 06:12:07;;;;;;;5.63;1.70;;;15.90;99.90;;;;;;5001126;28;20030;-68
2021/08/24 06:14:33;;;;;;;7.85;2.63;;;16.10;99.90;;;;;;5004866;28;20095;-69
2021/08/24 06:16:58;;;;;;;6.78;1.95;;;16.20;99.90;;;;;;4987948;28;20120;-69
2021/08/24 06:19:25;;;;;;;7.82;1.83;;;16.30;99.90;;;;;;5001854;28;20476;-69
2021/08/24 06:21:52;;;;;;;13.15;2.35;;;16.40;99.90;;;;;;5004501;28;20557;-69
2021/08/24 06:24:18;;;;;;;6.35;2.63;;;16.50;99.90;;;;;;5005826;28;20036;-69
2021/08/24 06:26:44;;;;;;;5.97;2.17;;;16.70;99.90;;;;;;5006979;28;20046;-70
2021/08/24 06:29:10;;;;;;;7.85;2.08;;;16.80;99.90;;;;;;5001666;28;20449;-69
2021/08/24 06:31:44;;;;;;;6.10;1.40;;;17.00;99.90;;;;;;4985179;28;20155;-69
2021/08/24 06:34:11;;;;;;;6.82;1.80;;;17.20;99.90;;;;;;5001472;28;20121;-69
2021/08/24 06:36:38;;;;;;;5.30;1.73;;;17.50;99.90;;;;;;5003663;28;20121;-69
2021/08/24 06:39:08;;;;;;;8.38;1.35;;;17.80;99.90;;;;;;4982913;28;20035;-70
2021/08/24 06:41:33;;;;;;;4.33;1.40;;;18.10;99.90;;;;;;5003009;28;20033;-69
2021/08/24 06:43:59;;;;;;;4.70;1.40;;;18.50;99.90;;;;;;4980288;28;20100;-70
2021/08/24 06:46:25;;;;;;;6.03;1.27;;;18.80;99.90;;;;;;5003507;28;20046;-70
2021/08/24 06:48:51;;;;;;;7.30;2.05;;;19.30;99.90;;;;;;5007953;28;20120;-69
2021/08/24 06:51:16;;;;;;;5.53;1.10;;;19.70;99.90;;;;;;5001540;28;20092;-70
2021/08/24 06:53:42;;;;;;;3.58;1.20;;;20.00;99.90;;;;;;5003693;28;20650;-71
2021/08/24 06:56:12;;;;;;;3.67;1.45;;;20.30;99.90;;;;;;5000091;28;20046;-70
2021/08/24 06:58:42;;;;;;;4.38;1.20;;;20.90;99.90;;;;;;5006101;28;20084;-70
2021/08/24 07:01:22;;;;;;;2.28;0.90;;;21.70;99.90;;;;;;5001179;28;20474;-70
2021/08/24 07:03:48;;;;;;;4.82;1.10;;;22.40;99.90;;;;;;5004353;28;20497;-71
2021/08/24 07:06:14;;;;;;;4.30;1.05;;;23.00;99.90;;;;;;5002865;28;20065;-71
2021/08/24 07:08:40;;;;;;;3.88;1.10;;;23.40;99.90;;;;;;5001595;28;20038;-70
2021/08/24 07:11:07;;;;;;;7.75;1.42;;;23.60;99.90;;;;;;5000835;28;20104;-71
2021/08/24 07:13:34;;;;;;;3.58;0.90;;;23.60;99.90;;;;;;5001353;28;20078;-70
2021/08/24 07:15:59;;;;;;;7.28;0.88;;;24.00;99.90;;;;;;5000207;28;20037;-70
2021/08/24 07:18:25;;;;;;;4.35;1.30;;;24.10;99.90;;;;;;5004600;28;20092;-70
2021/08/24 07:20:53;;;;;;;5.22;1.20;;;23.80;99.90;;;;;;5006395;28;20029;-71
2021/08/24 07:23:19;;;;;;;3.40;0.98;;;23.90;99.90;;;;;;5000939;28;20041;-71
2021/08/24 07:25:45;;;;;;;10.07;1.40;;;23.90;99.90;;;;;;4983769;28;20638;-70
2021/08/24 07:28:11;;;;;;;3.70;1.08;;;23.70;99.90;;;;;;5001169;28;20810;-67
2021/08/24 07:30:43;;;;;;;3.70;1.40;;;23.40;99.90;;;;;;5006160;28;20096;-68
2021/08/24 07:33:10;;;;;;;4.53;1.05;;;23.20;99.90;;;;;;5002883;28;20109;-67
2021/08/24 07:35:36;;;;;;;5.43;0.82;;;22.80;99.90;;;;;;5000063;28;20026;-66
2021/08/24 07:38:01;;;;;;;5.93;1.15;;;22.30;99.90;;;;;;5000161;28;20092;-69
2021/08/24 07:40:29;;;;;;;3.90;1.25;;;22.00;99.90;;;;;;5001166;28;20750;-70
2021/08/24 07:42:55;;;;;;;2.63;0.95;;;21.80;99.90;;;;;;5002401;28;20030;-70
2021/08/24 07:45:21;;;;;;;5.32;0.95;;;21.50;99.90;;;;;;5000804;28;20033;-70
2021/08/24 07:47:47;;;;;;;2.05;1.02;;;21.10;99.90;;;;;;5002919;28;20046;-69
2021/08/24 07:50:13;;;;;;;3.13;1.20;;;20.70;99.90;;;;;;5005332;28;20029;-70
2021/08/24 07:52:39;;;;;;;4.50;1.25;;;20.40;99.90;;;;;;5004197;28;20104;-70
2021/08/24 07:55:06;;;;;;;5.20;1.63;;;20.20;99.90;;;;;;5000791;28;20494;-70
2021/08/24 07:57:32;;;;;;;3.85;1.00;;;19.90;99.90;;;;;;5002283;28;20053;-69
2021/08/24 07:59:57;;;;;;;7.50;1.02;;;19.80;99.90;;;;;;5004112;28;20691;-70
2021/08/24 08:02:23;;;;;;;3.03;1.15;;;19.70;99.90;;;;;;5001259;28;20117;-69
2021/08/24 08:04:48;;;;;;;5.88;0.98;;;19.60;99.90;;;;;;4999468;28;20041;-69
2021/08/24 08:07:15;;;;;;;1.65;0.80;;;19.60;99.90;;;;;;4984475;28;20038;-69
2021/08/24 08:09:42;;;;;;;5.03;0.95;;;19.60;99.90;;;;;;5001810;28;20406;-69
2021/08/24 08:12:08;;;;;;;2.47;0.95;;;19.80;99.90;;;;;;5002075;28;20072;-70
2021/08/24 08:14:33;;;;;;;2.78;1.17;;;19.90;99.90;;;;;;4999662;28;20086;-69
2021/08/24 08:16:59;;;;;;;3.50;1.05;;;19.80;99.90;;;;;;5002121;28;20505;-69
2021/08/24 08:19:25;;;;;;;2.83;0.95;;;19.80;99.90;;;;;;4979791;28;20038;-69
2021/08/24 08:21:50;;;;;;;6.93;1.10;;;19.70;99.90;;;;;;5001707;28;20030;-69
2021/08/24 08:24:16;;;;;;;6.32;1.17;;;19.70;99.90;;;;;;5005475;28;20030;-69
2021/08/24 08:26:41;;;;;;;3.15;0.82;;;19.70;99.90;;;;;;4982318;28;20079;-69
2021/08/24 08:29:12;;;;;;;2.85;0.82;;;19.70;99.90;;;;;;4984170;28;20418;-69
2021/08/24 08:31:42;;;;;;;2.55;0.98;;;19.70;99.90;;;;;;5000219;28;20034;-69
2021/08/24 08:34:09;;;;;;;1.73;0.75;;;19.80;99.90;;;;;;5005188;28;20034;-69
2021/08/24 08:36:34;;;;;;;2.85;0.90;;;19.80;99.90;;;;;;5003758;28;20116;-69
2021/08/24 08:39:00;;;;;;;7.72;1.25;;;19.90;99.90;;;;;;5002723;28;20142;-69
2021/08/24 08:42:01;;;;;;;3.42;0.80;;;19.90;99.90;;;;;;4990304;28;20045;-70
2021/08/24 08:44:53;;;;;;;4.90;1.33;;;20.00;99.90;;;;;;5003738;28;20033;-70
2021/08/24 08:47:56;;;;;;;2.13;0.98;;;20.00;99.90;;;;;;5001631;28;20074;-69
2021/08/24 08:50:51;;;;;;;7.22;1.58;;;20.10;99.90;;;;;;5004233;28;20410;-69
2021/08/24 08:53:29;;;;;;;2.20;0.70;;;20.30;99.90;;;;;;4987812;28;20057;-69
2021/08/24 08:56:12;;;;;;;4.65;1.15;;;20.40;99.90;;;;;;5001399;28;20046;-69
2021/08/24 08:59:09;;;;;;;2.22;0.80;;;20.40;99.90;;;;;;5008133;28;20033;-69
2021/08/24 09:01:46;;;;;;;5.20;0.95;;;20.50;99.90;;;;;;5001033;28;21341;-68
2021/08/24 09:04:29;;;;;;;6.38;1.60;;;20.60;99.90;;;;;;5004783;28;20117;-69
2021/08/24 09:06:58;;;;;;;4.03;0.80;;;20.60;99.90;;;;;;5000226;28;20044;-69
2021/08/24 09:09:25;;;;;;;4.68;1.13;;;20.60;99.90;;;;;;5005012;28;20106;-70
2021/08/24 09:11:51;;;;;;;2.92;0.80;;;20.60;99.90;;;;;;5001906;28;20096;-69
2021/08/24 09:14:34;;;;;;;6.60;1.17;;;20.80;99.90;;;;;;4985909;28;20043;-70
2021/08/24 09:17:24;;;;;;;2.22;1.00;;;20.80;99.90;;;;;;5000188;28;20647;-69
2021/08/24 09:20:08;;;;;;;6.78;1.45;;;21.00;99.90;;;;;;4983829;28;20042;-72
2021/08/24 09:22:35;;;;;;;3.30;1.17;;;21.30;99.90;;;;;;5003661;28;20486;-69
2021/08/24 09:25:03;;;;;;;2.72;1.00;;;21.50;99.90;;;;;;5005385;28;20049;-68
2021/08/24 09:28:05;;;;;;;4.40;0.93;;;21.70;99.90;;;;;;5004548;28;20557;-68
2021/08/24 09:30:31;;;;;;;1.67;0.70;;;21.70;99.90;;;;;;5006855;28;20042;-69
2021/08/24 09:33:03;;;;;;;2.65;0.88;;;21.70;99.90;;;;;;5004939;28;20117;-70
2021/08/24 09:35:35;;;;;;;4.70;1.00;;;21.60;99.90;;;;;;5003348;28;20040;-69
2021/08/24 09:38:11;;;;;;;3.15;0.98;;;21.60;99.90;;;;;;5003338;28;20053;-70
2021/08/24 09:40:39;;;;;;;2.65;0.98;;;21.70;99.90;;;;;;5003379;28;20451;-69
2021/08/24 09:43:28;;;;;;;4.00;0.88;;;21.80;99.90;;;;;;4986054;28;20046;-69
2021/08/24 09:46:35;;;;;;;3.47;0.80;;;21.80;99.90;;;;;;4981942;28;20072;-69
2021/08/24 09:49:04;;;;;;;2.80;0.90;;;21.90;99.90;;;;;;4921626;29;20126;-69
2021/08/24 09:51:40;;;;;;;4.82;1.00;;;21.90;99.90;;;;;;4909952;29;20404;-69
2021/08/24 09:54:19;;;;;;;5.03;0.65;;;22.00;99.90;;;;;;4971883;28;20042;-69
2021/08/24 09:56:52;;;;;;;5.20;0.80;;;22.00;99.90;;;;;;5001993;28;20116;-69
2021/08/24 09:59:25;;;;;;;2.28;0.90;;;22.00;99.90;;;;;;5004998;28;20050;-69
2021/08/24 10:01:51;;;;;;;2.88;0.90;;;21.80;99.90;;;;;;4999145;28;20039;-69
2021/08/24 10:04:18;;;;;;;2.33;1.02;;;21.80;99.90;;;;;;5005338;28;20038;-69
2021/08/24 10:06:53;;;;;;;3.75;0.60;;;21.70;99.90;;;;;;5007399;28;20033;-69
2021/08/24 10:09:31;;;;;;;9.95;1.00;;;21.70;99.90;;;;;;5005255;28;20054;-69
2021/08/24 10:12:14;;;;;;;3.38;0.63;;;22.00;99.90;;;;;;4998373;28;20050;-70
2021/08/24 10:14:41;;;;;;;6.63;0.95;;;22.20;99.90;;;;;;5004125;28;20834;-69
2021/08/24 10:17:13;;;;;;;2.95;0.50;;;22.10;99.90;;;;;;5000493;28;20101;-69
2021/08/24 10:19:42;;;;;;;2.28;0.52;;;22.00;99.90;;;;;;5004720;28;20084;-70
2021/08/24 10:22:15;;;;;;;3.72;0.60;;;21.80;99.90;;;;;;4996828;28;20129;-70
2021/08/24 10:24:56;;;;;;;2.05;0.60;;;21.80;99.90;;;;;;5000465;28;20033;-70
2021/08/24 10:27:56;;;;;;;7.13;0.95;;;21.90;99.90;;;;;;5002586;28;20034;-69
2021/08/24 10:30:58;;;;;;;3.80;0.80;;;22.20;99.90;;;;;;5003115;28;20084;-70
2021/08/24 10:33:34;;;;;;;2.83;0.63;;;22.40;99.90;;;;;;4918498;29;20044;-70
2021/08/24 10:36:29;;;;;;;3.10;1.10;;;22.50;99.90;;;;;;4988976;28;20133;-70
2021/08/24 10:39:02;;;;;;;4.20;0.60;;;22.40;99.90;;;;;;5001535;28;20044;-70
2021/08/24 10:41:30;;;;;;;1.65;0.70;;;22.50;99.90;;;;;;5001472;28;20030;-69
2021/08/24 10:43:59;;;;;;;2.53;0.65;;;22.60;99.90;;;;;;4999852;28;20125;-70
2021/08/24 10:46:25;;;;;;;2.70;0.73;;;22.40;99.90;;;;;;4999468;28;20049;-70
2021/08/24 10:48:51;;;;;;;2.20;0.77;;;22.50;99.90;;;;;;5002724;28;20042;-70
2021/08/24 10:51:26;;;;;;;2.88;0.50;;;22.60;99.90;;;;;;5002498;28;20045;-70
2021/08/24 10:54:22;;;;;;;3.53;1.02;;;22.40;99.90;;;;;;5007501;28;20069;-69
2021/08/24 10:57:12;;;;;;;2.35;0.70;;;22.30;99.90;;;;;;4983398;28;20034;-69
2021/08/24 11:00:01;;;;;;;4.10;0.77;;;22.40;99.90;;;;;;4996958;28;20513;-69
2021/08/24 11:02:41;;;;;;;3.50;0.85;;;22.40;99.90;;;;;;5000140;28;20716;-69
2021/08/24 11:05:15;;;;;;;;;;;22.40;99.90;;;;;;5004068;28;20053;-70
2021/08/24 11:07:53;;;;;;;2.10;0.68;;;22.50;99.90;;;;;;5001770;28;19975;-69
2021/08/24 11:10:44;;;;;;;3.85;0.55;;;22.50;99.90;;;;;;5002954;28;20681;-69
2021/08/24 11:13:20;;;;;;;1.55;0.40;;;22.50;99.90;;;;;;5002845;28;20261;-68
2021/08/24 11:16:10;;;;;;;4.55;0.93;;;22.40;99.90;;;;;;4983078;28;20451;-69
2021/08/24 11:18:48;;;;;;;1.67;0.65;;;22.20;99.90;;;;;;5001019;28;20757;-69
2021/08/24 11:21:30;;;;;;;2.58;0.70;;;22.10;99.90;;;;;;5003509;28;20145;-69
2021/08/24 11:24:30;;;;;;;2.30;0.47;;;22.20;99.90;;;;;;5002298;28;20041;-70
2021/08/24 11:27:14;;;;;;;2.27;0.93;;;22.10;99.90;;;;;;4973740;28;20457;-68
2021/08/24 11:29:47;;;;;;;3.05;1.05;;;22.00;99.90;;;;;;5005491;28;20050;-70
2021/08/24 11:32:25;;;;;;;2.20;0.88;;;22.00;99.90;;;;;;5001831;28;20041;-69
2021/08/24 11:35:03;;;;;;;1.35;0.50;;;22.10;99.90;;;;;;5004272;28;20041;-69
2021/08/24 11:37:33;;;;;;;2.92;0.55;;;22.30;99.90;;;;;;5000151;28;20084;-68
2021/08/24 11:40:10;;;;;;;3.05;0.82;;;22.20;99.90;;;;;;4988818;28;20073;-69
2021/08/24 11:42:46;;;;;;;2.00;0.60;;;22.10;99.90;;;;;;5005967;28;20634;-69
2021/08/24 11:45:35;;;;;;;3.63;0.80;;;22.10;99.90;;;;;;4989993;28;20042;-68
2021/08/24 11:48:06;;;;;;;2.17;0.68;;;22.00;99.90;;;;;;4989845;28;20096;-69
2021/08/24 11:50:49;;;;;;;5.78;1.27;;;22.00;99.90;;;;;;5004407;28;20034;-68
2021/08/24 11:53:29;;;;;;;4.88;1.02;;;22.10;99.90;;;;;;5005648;28;20041;-68
2021/08/24 11:55:59;;;;;;;2.83;0.68;;;22.20;99.90;;;;;;5003513;28;20761;-68
2021/08/24 11:58:34;;;;;;;;;;;22.20;99.90;;;;;;5003348;28;20091;-69
2021/08/24 12:01:02;;;;;;;1.90;0.50;;;22.30;99.90;;;;;;4999875;28;19917;-68
2021/08/24 12:03:28;;;;;;;1.05;0.70;;;22.20;99.90;;;;;;5005463;28;20145;-68
2021/08/24 12:06:37;;;;;;;3.92;0.70;;;22.30;99.90;;;;;;5002294;28;20065;-69
2021/08/24 12:09:04;;;;;;;1.75;0.68;;;22.30;99.90;;;;;;4899264;29;20136;-69
2021/08/24 12:11:49;;;;;;;2.55;0.60;;;22.20;99.90;;;;;;4900123;29;20060;-69
2021/08/24 12:14:36;;;;;;;2.33;0.70;;;22.20;99.90;;;;;;4968392;28;20034;-69
2021/08/24 12:17:21;;;;;;;3.33;0.60;;;22.10;99.90;;;;;;5010480;28;20057;-69
2021/08/24 12:20:05;;;;;;;1.85;0.80;;;22.10;99.90;;;;;;5009822;28;20049;-70
2021/08/24 12:22:55;;;;;;;2.00;0.40;;;22.20;99.90;;;;;;4991879;28;20124;-69
2021/08/24 12:25:39;;;;;;;2.15;0.63;;;22.60;99.90;;;;;;5006583;28;20084;-69
2021/08/24 12:28:30;;;;;;;2.45;0.80;;;22.70;99.90;;;;;;5008869;28;20425;-69
2021/08/24 12:30:56;;;;;;;3.70;0.70;;;22.70;99.90;;;;;;5009401;28;20046;-68
2021/08/24 12:33:43;;;;;;;2.35;0.70;;;22.60;99.90;;;;;;5011570;28;20044;-69
2021/08/24 12:36:24;;;;;;;2.95;0.73;;;22.60;99.90;;;;;;5006360;28;20379;-68
2021/08/24 12:38:54;;;;;;;1.20;0.50;;;22.60;99.90;;;;;;5010420;28;20148;-70
2021/08/24 12:41:31;;;;;;;3.10;0.40;;;22.50;99.90;;;;;;5009544;28;20057;-69
2021/08/24 12:44:25;;;;;;;3.45;0.63;;;22.30;99.90;;;;;;5009222;28;20049;-69
2021/08/24 12:47:12;;;;;;;1.95;0.63;;;22.20;99.90;;;;;;4980773;28;20045;-69
2021/08/24 12:49:37;;;;;;;2.47;0.73;;;22.20;99.90;;;;;;4955172;28;20038;-70
2021/08/24 12:52:26;;;;;;;2.65;0.75;;;22.40;99.90;;;;;;5007674;28;20079;-69
2021/08/24 12:55:34;;;;;;;0.40;0.20;;;22.30;99.90;;;;;;5006049;28;20049;-70
2021/08/24 12:58:14;;;;;;;1.73;0.55;;;22.30;99.90;;;;;;4973939;28;20033;-71
2021/08/24 13:00:42;;;;;;;2.03;0.50;;;22.30;99.90;;;;;;5007469;28;20033;-69
2021/08/24 13:03:25;;;;;;;2.25;0.70;;;22.30;99.90;;;;;;4993554;28;20176;-69
2021/08/24 13:06:15;;;;;;;2.63;0.93;;;22.30;99.90;;;;;;5006781;28;20033;-70
2021/08/24 13:08:42;;;;;;;6.13;0.60;;;22.20;99.90;;;;;;4988481;28;20064;-69
2021/08/24 13:11:32;;;;;;;3.47;0.63;;;22.00;99.90;;;;;;5010301;28;20438;-69
2021/08/24 13:14:08;;;;;;;0.80;0.30;;;21.90;99.90;;;;;;5005397;28;20549;-70